Yevpatoriya, Ukraine
Current Conditions -  °F | °C
As of 6:00 AM on Saturday 22 Nov 2014 (Local Time) from URFF Reporting Station
Overcast Overcast  
Wind Chill: 26°   Ceiling: 800
Heat Index: 37°   Visibility: 6mi
Dew Point: 34°   Wind: 25mph
Humidity: 87%   Direction: 70°ENE
Pressure: 29.97"   Gusts: NA
Location:  45.2°N, 33.36°E
Report Text: URFF 220300Z 07011MPS 9999 OVC008 03/01 Q1015 01250058 NOSIG
Loading
Personal Weather Stations






























Interactive Weather Map New forecast layout! Learn more

10-Day Weather Forecast

Advertisements
Track Severe Weather on mobile